sensor_id;sensor_type;location;lat;lon;timestamp;temperature;humidity
7934;DHT22;4012;48.896;9.192;2022-12-29T00:00:07;9.40;99.90
7934;DHT22;4012;48.896;9.192;2022-12-29T00:02:33;9.40;99.90
7934;DHT22;4012;48.896;9.192;2022-12-29T00:04:59;9.50;99.90
7934;DHT22;4012;48.896;9.192;2022-12-29T00:07:24;9.60;99.90
7934;DHT22;4012;48.896;9.192;2022-12-29T00:09:50;9.50;99.90
7934;DHT22;4012;48.896;9.192;2022-12-29T00:12:15;9.60;99.90
7934;DHT22;4012;48.896;9.192;2022-12-29T00:14:41;9.60;99.90
7934;DHT22;4012;48.896;9.192;2022-12-29T00:17:25;9.60;99.90
7934;DHT22;4012;48.896;9.192;2022-12-29T00:19:50;9.70;99.90
7934;DHT22;4012;48.896;9.192;2022-12-29T00:22:35;9.70;99.90
7934;DHT22;4012;48.896;9.192;2022-12-29T00:25:19;9.70;99.90
7934;DHT22;4012;48.896;9.192;2022-12-29T00:28:04;9.70;99.90
7934;DHT22;4012;48.896;9.192;2022-12-29T00:30:48;9.70;99.90
7934;DHT22;4012;48.896;9.192;2022-12-29T00:33:33;9.70;99.90
7934;DHT22;4012;48.896;9.192;2022-12-29T00:36:28;9.70;99.90
7934;DHT22;4012;48.896;9.192;2022-12-29T00:39:03;9.70;99.90
7934;DHT22;4012;48.896;9.192;2022-12-29T00:41:48;9.80;99.90
7934;DHT22;4012;48.896;9.192;2022-12-29T00:44:32;9.80;99.90
7934;DHT22;4012;48.896;9.192;2022-12-29T00:46:58;9.80;99.90
7934;DHT22;4012;48.896;9.192;2022-12-29T00:49:28;9.80;99.90
7934;DHT22;4012;48.896;9.192;2022-12-29T00:52:08;9.90;99.90
7934;DHT22;4012;48.896;9.192;2022-12-29T00:54:39;9.90;99.90
7934;DHT22;4012;48.896;9.192;2022-12-29T00:57:07;9.90;99.90
7934;DHT22;4012;48.896;9.192;2022-12-29T00:59:38;9.90;99.90
7934;DHT22;4012;48.896;9.192;2022-12-29T01:02:04;9.90;99.90
7934;DHT22;4012;48.896;9.192;2022-12-29T01:04:29;9.90;99.90
7934;DHT22;4012;48.896;9.192;2022-12-29T01:06:55;9.90;99.90
7934;DHT22;4012;48.896;9.192;2022-12-29T01:09:20;9.90;99.90
7934;DHT22;4012;48.896;9.192;2022-12-29T01:12:06;9.90;99.90
7934;DHT22;4012;48.896;9.192;2022-12-29T01:14:32;9.90;99.90
7934;DHT22;4012;48.896;9.192;2022-12-29T01:16:58;9.90;99.90
7934;DHT22;4012;48.896;9.192;2022-12-29T01:19:24;10.00;99.90
7934;DHT22;4012;48.896;9.192;2022-12-29T01:21:50;9.90;99.90
7934;DHT22;4012;48.896;9.192;2022-12-29T01:24:17;10.00;99.90
7934;DHT22;4012;48.896;9.192;2022-12-29T01:26:43;10.00;99.90
7934;DHT22;4012;48.896;9.192;2022-12-29T01:29:09;10.00;99.90
7934;DHT22;4012;48.896;9.192;2022-12-29T01:31:35;10.00;99.90
7934;DHT22;4012;48.896;9.192;2022-12-29T01:34:01;10.00;99.90
7934;DHT22;4012;48.896;9.192;2022-12-29T01:36:27;10.00;99.90
7934;DHT22;4012;48.896;9.192;2022-12-29T01:38:52;10.10;99.90
7934;DHT22;4012;48.896;9.192;2022-12-29T01:41:18;10.10;99.90
7934;DHT22;4012;48.896;9.192;2022-12-29T01:43:54;10.10;99.90
7934;DHT22;4012;48.896;9.192;2022-12-29T01:48:59;10.10;99.90
7934;DHT22;4012;48.896;9.192;2022-12-29T01:51:28;10.10;99.90
7934;DHT22;4012;48.896;9.192;2022-12-29T01:53:58;10.10;99.90
7934;DHT22;4012;48.896;9.192;2022-12-29T01:56:25;10.10;99.90
7934;DHT22;4012;48.896;9.192;2022-12-29T01:59:04;10.10;99.90
7934;DHT22;4012;48.896;9.192;2022-12-29T02:01:32;10.10;99.90
7934;DHT22;4012;48.896;9.192;2022-12-29T02:03:58;10.10;99.90
7934;DHT22;4012;48.896;9.192;2022-12-29T02:06:28;10.10;99.90
7934;DHT22;4012;48.896;9.192;2022-12-29T02:08:55;10.10;99.90
7934;DHT22;4012;48.896;9.192;2022-12-29T02:11:23;10.10;99.90
7934;DHT22;4012;48.896;9.192;2022-12-29T02:13:50;10.20;99.90
7934;DHT22;4012;48.896;9.192;2022-12-29T02:19:18;10.40;99.90
7934;DHT22;4012;48.896;9.192;2022-12-29T02:30:44;10.50;99.90
7934;DHT22;4012;48.896;9.192;2022-12-29T02:41:12;10.40;99.90
7934;DHT22;4012;48.896;9.192;2022-12-29T02:43:53;10.30;99.90
7934;DHT22;4012;48.896;9.192;2022-12-29T02:46:33;10.30;99.90
7934;DHT22;4012;48.896;9.192;2022-12-29T02:52:03;10.30;99.90
7934;DHT22;4012;48.896;9.192;2022-12-29T02:54:30;10.40;99.90
7934;DHT22;4012;48.896;9.192;2022-12-29T02:57:15;10.30;99.90
7934;DHT22;4012;48.896;9.192;2022-12-29T02:59:43;10.40;99.90
7934;DHT22;4012;48.896;9.192;2022-12-29T03:02:27;10.40;99.90
7934;DHT22;4012;48.896;9.192;2022-12-29T03:13:04;10.40;99.90
7934;DHT22;4012;48.896;9.192;2022-12-29T03:15:58;10.40;99.90
7934;DHT22;4012;48.896;9.192;2022-12-29T03:24:19;10.40;99.90
7934;DHT22;4012;48.896;9.192;2022-12-29T03:26:47;10.50;99.90
7934;DHT22;4012;48.896;9.192;2022-12-29T03:29:15;10.40;99.90
7934;DHT22;4012;48.896;9.192;2022-12-29T03:31:42;10.40;99.90
7934;DHT22;4012;48.896;9.192;2022-12-29T03:34:10;10.30;99.90
7934;DHT22;4012;48.896;9.192;2022-12-29T03:36:44;10.40;99.90
7934;DHT22;4012;48.896;9.192;2022-12-29T03:39:13;10.40;99.90
7934;DHT22;4012;48.896;9.192;2022-12-29T03:41:42;10.40;99.90
7934;DHT22;4012;48.896;9.192;2022-12-29T03:44:10;10.30;99.90
7934;DHT22;4012;48.896;9.192;2022-12-29T03:46:36;10.30;99.90
7934;DHT22;4012;48.896;9.192;2022-12-29T03:49:02;10.30;99.90
7934;DHT22;4012;48.896;9.192;2022-12-29T03:51:27;10.30;99.90
7934;DHT22;4012;48.896;9.192;2022-12-29T03:53:53;10.30;99.90
7934;DHT22;4012;48.896;9.192;2022-12-29T03:56:19;10.30;99.90
7934;DHT22;4012;48.896;9.192;2022-12-29T03:58:44;10.30;99.90
7934;DHT22;4012;48.896;9.192;2022-12-29T04:01:10;10.30;99.90
7934;DHT22;4012;48.896;9.192;2022-12-29T04:03:35;10.30;99.90
7934;DHT22;4012;48.896;9.192;2022-12-29T04:06:01;10.40;99.90
7934;DHT22;4012;48.896;9.192;2022-12-29T04:08:27;10.30;99.90
7934;DHT22;4012;48.896;9.192;2022-12-29T04:10:52;10.30;99.90
7934;DHT22;4012;48.896;9.192;2022-12-29T04:13:18;10.20;99.90
7934;DHT22;4012;48.896;9.192;2022-12-29T04:15:44;10.30;99.90
7934;DHT22;4012;48.896;9.192;2022-12-29T04:18:11;10.30;99.90
7934;DHT22;4012;48.896;9.192;2022-12-29T04:20:36;10.40;99.90
7934;DHT22;4012;48.896;9.192;2022-12-29T04:23:21;10.40;99.90
7934;DHT22;4012;48.896;9.192;2022-12-29T04:25:47;10.40;99.90
7934;DHT22;4012;48.896;9.192;2022-12-29T04:28:13;10.50;99.90
7934;DHT22;4012;48.896;9.192;2022-12-29T04:30:39;10.50;99.90
7934;DHT22;4012;48.896;9.192;2022-12-29T04:33:04;10.50;99.90
7934;DHT22;4012;48.896;9.192;2022-12-29T04:35:30;10.60;99.90
7934;DHT22;4012;48.896;9.192;2022-12-29T04:37:55;10.60;99.90
7934;DHT22;4012;48.896;9.192;2022-12-29T04:40:21;10.60;99.90
7934;DHT22;4012;48.896;9.192;2022-12-29T04:42:46;10.60;99.90
7934;DHT22;4012;48.896;9.192;2022-12-29T04:45:12;10.60;99.90
7934;DHT22;4012;48.896;9.192;2022-12-29T04:47:37;10.60;99.90
7934;DHT22;4012;48.896;9.192;2022-12-29T04:50:03;10.60;99.90
7934;DHT22;4012;48.896;9.192;2022-12-29T04:52:29;10.50;99.90
7934;DHT22;4012;48.896;9.192;2022-12-29T04:54:55;10.40;99.90
7934;DHT22;4012;48.896;9.192;2022-12-29T04:57:21;10.40;99.90
7934;DHT22;4012;48.896;9.192;2022-12-29T04:59:46;10.30;99.90
7934;DHT22;4012;48.896;9.192;2022-12-29T05:02:12;10.30;99.90
7934;DHT22;4012;48.896;9.192;2022-12-29T05:04:37;10.30;99.90
7934;DHT22;4012;48.896;9.192;2022-12-29T05:07:03;10.40;99.90
7934;DHT22;4012;48.896;9.192;2022-12-29T05:09:28;10.50;99.90
7934;DHT22;4012;48.896;9.192;2022-12-29T05:11:55;10.50;99.90
7934;DHT22;4012;48.896;9.192;2022-12-29T05:14:21;10.50;99.90
7934;DHT22;4012;48.896;9.192;2022-12-29T05:16:46;10.50;99.90
7934;DHT22;4012;48.896;9.192;2022-12-29T05:19:12;10.50;99.90
7934;DHT22;4012;48.896;9.192;2022-12-29T05:21:38;10.60;99.90
7934;DHT22;4012;48.896;9.192;2022-12-29T05:24:04;10.60;99.90
7934;DHT22;4012;48.896;9.192;2022-12-29T05:26:29;10.60;99.90
7934;DHT22;4012;48.896;9.192;2022-12-29T05:28:55;10.50;99.90
7934;DHT22;4012;48.896;9.192;2022-12-29T05:31:20;10.60;99.90
7934;DHT22;4012;48.896;9.192;2022-12-29T05:33:46;10.60;99.90
7934;DHT22;4012;48.896;9.192;2022-12-29T05:36:12;10.60;99.90
7934;DHT22;4012;48.896;9.192;2022-12-29T05:38:37;10.60;99.90
7934;DHT22;4012;48.896;9.192;2022-12-29T05:41:03;10.70;99.90
7934;DHT22;4012;48.896;9.192;2022-12-29T05:43:28;10.80;99.90
7934;DHT22;4012;48.896;9.192;2022-12-29T05:45:55;10.90;99.90
7934;DHT22;4012;48.896;9.192;2022-12-29T05:48:21;11.00;99.90
7934;DHT22;4012;48.896;9.192;2022-12-29T05:50:50;11.00;99.90
7934;DHT22;4012;48.896;9.192;2022-12-29T05:53:17;11.10;99.90
7934;DHT22;4012;48.896;9.192;2022-12-29T05:55:44;11.20;99.90
7934;DHT22;4012;48.896;9.192;2022-12-29T05:58:09;11.30;99.90
7934;DHT22;4012;48.896;9.192;2022-12-29T06:00:35;11.30;99.90
7934;DHT22;4012;48.896;9.192;2022-12-29T06:03:01;11.40;99.90
7934;DHT22;4012;48.896;9.192;2022-12-29T06:05:26;11.50;99.90
7934;DHT22;4012;48.896;9.192;2022-12-29T06:07:52;11.50;99.90
7934;DHT22;4012;48.896;9.192;2022-12-29T06:10:17;11.50;99.90
7934;DHT22;4012;48.896;9.192;2022-12-29T06:12:43;11.40;99.90
7934;DHT22;4012;48.896;9.192;2022-12-29T06:15:09;11.30;99.90
7934;DHT22;4012;48.896;9.192;2022-12-29T06:17:35;11.30;99.90
7934;DHT22;4012;48.896;9.192;2022-12-29T06:20:01;11.20;99.90
7934;DHT22;4012;48.896;9.192;2022-12-29T06:22:26;11.10;99.90
7934;DHT22;4012;48.896;9.192;2022-12-29T06:24:52;11.10;99.90
7934;DHT22;4012;48.896;9.192;2022-12-29T06:27:17;11.10;99.90
7934;DHT22;4012;48.896;9.192;2022-12-29T06:29:43;11.10;99.90
7934;DHT22;4012;48.896;9.192;2022-12-29T06:32:09;11.20;99.90
7934;DHT22;4012;48.896;9.192;2022-12-29T06:34:35;11.00;99.90
7934;DHT22;4012;48.896;9.192;2022-12-29T06:37:01;11.00;99.90
7934;DHT22;4012;48.896;9.192;2022-12-29T06:39:27;11.00;99.90
7934;DHT22;4012;48.896;9.192;2022-12-29T06:41:53;11.00;99.90
7934;DHT22;4012;48.896;9.192;2022-12-29T06:44:23;11.00;99.90
7934;DHT22;4012;48.896;9.192;2022-12-29T06:46:49;11.00;99.90
7934;DHT22;4012;48.896;9.192;2022-12-29T06:49:15;11.10;99.90
7934;DHT22;4012;48.896;9.192;2022-12-29T06:51:40;11.10;99.90
7934;DHT22;4012;48.896;9.192;2022-12-29T06:54:06;11.20;99.90
7934;DHT22;4012;48.896;9.192;2022-12-29T06:56:32;11.20;99.90
7934;DHT22;4012;48.896;9.192;2022-12-29T06:58:57;11.10;99.90
7934;DHT22;4012;48.896;9.192;2022-12-29T07:01:25;11.00;99.90
7934;DHT22;4012;48.896;9.192;2022-12-29T07:03:51;11.00;99.90
7934;DHT22;4012;48.896;9.192;2022-12-29T07:06:16;11.00;99.90
7934;DHT22;4012;48.896;9.192;2022-12-29T07:08:42;11.00;99.90
7934;DHT22;4012;48.896;9.192;2022-12-29T07:11:07;11.00;99.90
7934;DHT22;4012;48.896;9.192;2022-12-29T07:13:35;11.00;99.90
7934;DHT22;4012;48.896;9.192;2022-12-29T07:16:08;11.00;99.90
7934;DHT22;4012;48.896;9.192;2022-12-29T07:18:34;11.00;99.90
7934;DHT22;4012;48.896;9.192;2022-12-29T07:21:00;11.00;99.90
7934;DHT22;4012;48.896;9.192;2022-12-29T07:23:27;11.00;99.90
7934;DHT22;4012;48.896;9.192;2022-12-29T07:26:06;11.00;99.90
7934;DHT22;4012;48.896;9.192;2022-12-29T07:28:33;11.00;99.90
7934;DHT22;4012;48.896;9.192;2022-12-29T07:30:59;11.10;99.90
7934;DHT22;4012;48.896;9.192;2022-12-29T07:33:25;11.20;99.90
7934;DHT22;4012;48.896;9.192;2022-12-29T07:35:53;11.20;99.90
7934;DHT22;4012;48.896;9.192;2022-12-29T07:38:18;11.20;99.90
7934;DHT22;4012;48.896;9.192;2022-12-29T07:40:44;11.20;99.90
7934;DHT22;4012;48.896;9.192;2022-12-29T07:43:09;11.20;99.90
7934;DHT22;4012;48.896;9.192;2022-12-29T07:45:35;11.20;99.90
7934;DHT22;4012;48.896;9.192;2022-12-29T07:48:01;11.20;99.90
7934;DHT22;4012;48.896;9.192;2022-12-29T07:50:28;11.10;99.90
7934;DHT22;4012;48.896;9.192;2022-12-29T07:52:53;11.20;99.90
7934;DHT22;4012;48.896;9.192;2022-12-29T07:55:19;11.20;99.90
7934;DHT22;4012;48.896;9.192;2022-12-29T07:57:44;11.10;99.90
7934;DHT22;4012;48.896;9.192;2022-12-29T08:00:10;11.10;99.90
7934;DHT22;4012;48.896;9.192;2022-12-29T08:02:36;11.10;99.90
7934;DHT22;4012;48.896;9.192;2022-12-29T08:05:02;11.10;99.90
7934;DHT22;4012;48.896;9.192;2022-12-29T08:07:27;11.10;99.90
7934;DHT22;4012;48.896;9.192;2022-12-29T08:09:53;11.20;99.90
7934;DHT22;4012;48.896;9.192;2022-12-29T08:12:19;11.20;99.90
7934;DHT22;4012;48.896;9.192;2022-12-29T08:14:44;11.20;99.90
7934;DHT22;4012;48.896;9.192;2022-12-29T08:17:10;11.30;99.90
7934;DHT22;4012;48.896;9.192;2022-12-29T08:19:36;11.30;99.90
7934;DHT22;4012;48.896;9.192;2022-12-29T08:22:02;11.40;99.90
7934;DHT22;4012;48.896;9.192;2022-12-29T08:24:28;11.30;99.90
7934;DHT22;4012;48.896;9.192;2022-12-29T08:26:53;11.40;99.90
7934;DHT22;4012;48.896;9.192;2022-12-29T08:29:19;11.50;99.90
7934;DHT22;4012;48.896;9.192;2022-12-29T08:31:47;11.50;99.90
7934;DHT22;4012;48.896;9.192;2022-12-29T08:34:12;11.40;99.90
7934;DHT22;4012;48.896;9.192;2022-12-29T08:36:38;11.40;99.90
7934;DHT22;4012;48.896;9.192;2022-12-29T08:39:04;11.40;99.90
7934;DHT22;4012;48.896;9.192;2022-12-29T08:41:29;11.40;99.90
7934;DHT22;4012;48.896;9.192;2022-12-29T08:43:55;11.50;99.90
7934;DHT22;4012;48.896;9.192;2022-12-29T08:46:21;11.50;99.90
7934;DHT22;4012;48.896;9.192;2022-12-29T08:48:47;11.50;99.90
7934;DHT22;4012;48.896;9.192;2022-12-29T08:51:12;11.60;99.90
7934;DHT22;4012;48.896;9.192;2022-12-29T08:53:38;11.70;99.90
7934;DHT22;4012;48.896;9.192;2022-12-29T08:56:04;11.70;99.90
7934;DHT22;4012;48.896;9.192;2022-12-29T08:58:30;11.80;99.90
7934;DHT22;4012;48.896;9.192;2022-12-29T09:00:57;11.70;99.90
7934;DHT22;4012;48.896;9.192;2022-12-29T09:03:23;11.70;99.90
7934;DHT22;4012;48.896;9.192;2022-12-29T09:05:50;11.70;99.90
7934;DHT22;4012;48.896;9.192;2022-12-29T09:08:16;11.70;99.90
7934;DHT22;4012;48.896;9.192;2022-12-29T09:10:43;11.70;99.90
7934;DHT22;4012;48.896;9.192;2022-12-29T09:13:09;11.70;99.90
7934;DHT22;4012;48.896;9.192;2022-12-29T09:15:35;11.80;99.90
7934;DHT22;4012;48.896;9.192;2022-12-29T09:18:00;11.80;99.90
7934;DHT22;4012;48.896;9.192;2022-12-29T09:20:26;11.80;99.90
7934;DHT22;4012;48.896;9.192;2022-12-29T09:22:51;11.90;99.90
7934;DHT22;4012;48.896;9.192;2022-12-29T09:25:17;11.90;99.90
7934;DHT22;4012;48.896;9.192;2022-12-29T09:27:43;12.00;99.90
7934;DHT22;4012;48.896;9.192;2022-12-29T09:30:11;12.00;99.90
7934;DHT22;4012;48.896;9.192;2022-12-29T09:32:37;12.10;99.90
7934;DHT22;4012;48.896;9.192;2022-12-29T09:35:04;12.10;99.90
7934;DHT22;4012;48.896;9.192;2022-12-29T09:37:29;12.10;99.90
7934;DHT22;4012;48.896;9.192;2022-12-29T09:39:55;12.20;99.90
7934;DHT22;4012;48.896;9.192;2022-12-29T09:42:40;12.20;99.90
7934;DHT22;4012;48.896;9.192;2022-12-29T09:45:32;12.30;99.90
7934;DHT22;4012;48.896;9.192;2022-12-29T09:47:59;12.30;99.90
7934;DHT22;4012;48.896;9.192;2022-12-29T09:50:33;12.40;99.90
7934;DHT22;4012;48.896;9.192;2022-12-29T09:55:47;12.50;99.90
7934;DHT22;4012;48.896;9.192;2022-12-29T09:58:50;12.50;99.90
7934;DHT22;4012;48.896;9.192;2022-12-29T10:01:21;12.70;99.90
7934;DHT22;4012;48.896;9.192;2022-12-29T10:03:51;12.70;99.90
7934;DHT22;4012;48.896;9.192;2022-12-29T10:06:40;12.60;99.90
7934;DHT22;4012;48.896;9.192;2022-12-29T10:09:37;12.50;99.90
7934;DHT22;4012;48.896;9.192;2022-12-29T10:12:40;12.60;99.90
7934;DHT22;4012;48.896;9.192;2022-12-29T10:23:45;12.70;99.90
7934;DHT22;4012;48.896;9.192;2022-12-29T10:26:23;12.80;99.90
7934;DHT22;4012;48.896;9.192;2022-12-29T10:29:08;12.70;99.90
7934;DHT22;4012;48.896;9.192;2022-12-29T10:34:31;12.90;99.90
7934;DHT22;4012;48.896;9.192;2022-12-29T10:37:11;12.90;99.90
7934;DHT22;4012;48.896;9.192;2022-12-29T10:39:43;13.00;99.90
7934;DHT22;4012;48.896;9.192;2022-12-29T10:42:26;13.10;99.90
7934;DHT22;4012;48.896;9.192;2022-12-29T10:44:56;13.10;99.90
7934;DHT22;4012;48.896;9.192;2022-12-29T10:47:26;13.20;99.90
7934;DHT22;4012;48.896;9.192;2022-12-29T10:49:53;13.10;99.90
7934;DHT22;4012;48.896;9.192;2022-12-29T10:52:20;13.00;99.90
7934;DHT22;4012;48.896;9.192;2022-12-29T10:54:54;13.00;99.90
7934;DHT22;4012;48.896;9.192;2022-12-29T10:57:41;12.90;99.90
7934;DHT22;4012;48.896;9.192;2022-12-29T11:00:18;13.00;99.90
7934;DHT22;4012;48.896;9.192;2022-12-29T11:08:24;12.90;99.90
7934;DHT22;4012;48.896;9.192;2022-12-29T11:11:00;13.00;99.90
7934;DHT22;4012;48.896;9.192;2022-12-29T11:13:32;13.00;99.90
7934;DHT22;4012;48.896;9.192;2022-12-29T11:15:57;13.00;99.90
7934;DHT22;4012;48.896;9.192;2022-12-29T11:18:30;13.10;99.90
7934;DHT22;4012;48.896;9.192;2022-12-29T11:20:59;13.10;99.90
7934;DHT22;4012;48.896;9.192;2022-12-29T11:23:38;13.20;99.90
7934;DHT22;4012;48.896;9.192;2022-12-29T11:28:40;13.40;99.90
7934;DHT22;4012;48.896;9.192;2022-12-29T11:31:07;13.50;99.90
7934;DHT22;4012;48.896;9.192;2022-12-29T11:33:35;13.50;99.90
7934;DHT22;4012;48.896;9.192;2022-12-29T11:36:20;13.50;99.90
7934;DHT22;4012;48.896;9.192;2022-12-29T11:38:51;13.50;99.90
7934;DHT22;4012;48.896;9.192;2022-12-29T11:41:26;13.50;99.90
7934;DHT22;4012;48.896;9.192;2022-12-29T11:43:58;13.50;99.90
7934;DHT22;4012;48.896;9.192;2022-12-29T11:46:33;13.40;99.90
7934;DHT22;4012;48.896;9.192;2022-12-29T11:48:59;13.30;99.90
7934;DHT22;4012;48.896;9.192;2022-12-29T11:51:43;13.20;99.90
7934;DHT22;4012;48.896;9.192;2022-12-29T11:54:17;13.20;99.90
7934;DHT22;4012;48.896;9.192;2022-12-29T11:56:44;13.20;99.90
7934;DHT22;4012;48.896;9.192;2022-12-29T11:59:34;13.20;99.90
7934;DHT22;4012;48.896;9.192;2022-12-29T12:04:45;13.20;99.90
7934;DHT22;4012;48.896;9.192;2022-12-29T12:07:18;13.10;99.90
7934;DHT22;4012;48.896;9.192;2022-12-29T12:09:51;13.10;99.90
7934;DHT22;4012;48.896;9.192;2022-12-29T12:12:35;13.10;99.90
7934;DHT22;4012;48.896;9.192;2022-12-29T12:15:05;13.00;99.90
7934;DHT22;4012;48.896;9.192;2022-12-29T12:17:31;12.90;99.90
7934;DHT22;4012;48.896;9.192;2022-12-29T12:20:32;12.90;99.90
7934;DHT22;4012;48.896;9.192;2022-12-29T12:23:05;12.90;99.90
7934;DHT22;4012;48.896;9.192;2022-12-29T12:25:46;13.00;99.90
7934;DHT22;4012;48.896;9.192;2022-12-29T12:28:17;13.00;99.90
7934;DHT22;4012;48.896;9.192;2022-12-29T12:30:48;12.90;99.90
7934;DHT22;4012;48.896;9.192;2022-12-29T12:33:28;12.80;99.90
7934;DHT22;4012;48.896;9.192;2022-12-29T12:39:17;12.90;99.90
7934;DHT22;4012;48.896;9.192;2022-12-29T12:56:20;13.30;99.90
7934;DHT22;4012;48.896;9.192;2022-12-29T13:09:46;13.40;99.90
7934;DHT22;4012;48.896;9.192;2022-12-29T13:15:21;13.50;99.90
7934;DHT22;4012;48.896;9.192;2022-12-29T13:20:56;13.30;99.90
7934;DHT22;4012;48.896;9.192;2022-12-29T13:23:30;13.20;99.90
7934;DHT22;4012;48.896;9.192;2022-12-29T13:28:57;13.20;99.90
7934;DHT22;4012;48.896;9.192;2022-12-29T13:31:43;13.10;99.90
7934;DHT22;4012;48.896;9.192;2022-12-29T13:34:40;13.20;99.90
7934;DHT22;4012;48.896;9.192;2022-12-29T13:37:13;13.40;99.90
7934;DHT22;4012;48.896;9.192;2022-12-29T13:39:45;13.40;99.90
7934;DHT22;4012;48.896;9.192;2022-12-29T13:42:13;13.40;99.90
7934;DHT22;4012;48.896;9.192;2022-12-29T13:44:47;13.40;99.90
7934;DHT22;4012;48.896;9.192;2022-12-29T13:47:31;13.30;99.90
7934;DHT22;4012;48.896;9.192;2022-12-29T13:49:59;13.30;99.90
7934;DHT22;4012;48.896;9.192;2022-12-29T13:55:29;13.10;99.90
7934;DHT22;4012;48.896;9.192;2022-12-29T13:58:13;13.20;99.90
7934;DHT22;4012;48.896;9.192;2022-12-29T14:03:49;13.10;99.90
7934;DHT22;4012;48.896;9.192;2022-12-29T14:06:27;13.10;99.90
7934;DHT22;4012;48.896;9.192;2022-12-29T14:08:57;13.10;99.90
7934;DHT22;4012;48.896;9.192;2022-12-29T14:11:33;13.20;99.90
7934;DHT22;4012;48.896;9.192;2022-12-29T14:14:23;13.20;99.90
7934;DHT22;4012;48.896;9.192;2022-12-29T14:16:50;13.20;99.90
7934;DHT22;4012;48.896;9.192;2022-12-29T14:22:01;13.20;99.90
7934;DHT22;4012;48.896;9.192;2022-12-29T14:34:59;13.00;99.90
7934;DHT22;4012;48.896;9.192;2022-12-29T14:37:39;13.00;99.90
7934;DHT22;4012;48.896;9.192;2022-12-29T14:40:33;13.00;99.90
7934;DHT22;4012;48.896;9.192;2022-12-29T14:43:01;12.80;99.90
7934;DHT22;4012;48.896;9.192;2022-12-29T14:45:41;12.80;99.90
7934;DHT22;4012;48.896;9.192;2022-12-29T14:50:51;12.70;99.90
7934;DHT22;4012;48.896;9.192;2022-12-29T14:53:40;12.70;99.90
7934;DHT22;4012;48.896;9.192;2022-12-29T14:56:10;12.70;99.90
7934;DHT22;4012;48.896;9.192;2022-12-29T14:58:50;12.70;99.90
7934;DHT22;4012;48.896;9.192;2022-12-29T15:01:44;12.60;99.90
7934;DHT22;4012;48.896;9.192;2022-12-29T15:04:18;12.60;99.90
7934;DHT22;4012;48.896;9.192;2022-12-29T15:06:45;12.60;99.90
7934;DHT22;4012;48.896;9.192;2022-12-29T15:09:32;12.60;99.90
7934;DHT22;4012;48.896;9.192;2022-12-29T15:12:30;12.50;99.90
7934;DHT22;4012;48.896;9.192;2022-12-29T15:14:57;12.50;99.90
7934;DHT22;4012;48.896;9.192;2022-12-29T15:17:34;12.50;99.90
7934;DHT22;4012;48.896;9.192;2022-12-29T15:20:22;12.50;99.90
7934;DHT22;4012;48.896;9.192;2022-12-29T15:23:11;12.50;99.90
7934;DHT22;4012;48.896;9.192;2022-12-29T15:25:58;12.40;99.90
7934;DHT22;4012;48.896;9.192;2022-12-29T15:28:26;12.30;99.90
7934;DHT22;4012;48.896;9.192;2022-12-29T15:33:19;12.30;99.90
7934;DHT22;4012;48.896;9.192;2022-12-29T15:35:50;12.30;99.90
7934;DHT22;4012;48.896;9.192;2022-12-29T15:38:22;12.20;99.90
7934;DHT22;4012;48.896;9.192;2022-12-29T15:40:53;11.40;99.90
7934;DHT22;4012;48.896;9.192;2022-12-29T15:46:10;10.50;99.90
7934;DHT22;4012;48.896;9.192;2022-12-29T15:48:38;10.40;99.90
7934;DHT22;4012;48.896;9.192;2022-12-29T15:51:20;10.30;99.90
7934;DHT22;4012;48.896;9.192;2022-12-29T15:53:50;10.30;99.90
7934;DHT22;4012;48.896;9.192;2022-12-29T15:56:17;10.30;99.90
7934;DHT22;4012;48.896;9.192;2022-12-29T15:58:48;10.30;99.90
7934;DHT22;4012;48.896;9.192;2022-12-29T16:01:34;10.30;99.90
7934;DHT22;4012;48.896;9.192;2022-12-29T16:04:04;10.40;99.90
7934;DHT22;4012;48.896;9.192;2022-12-29T16:09:05;10.30;99.90
7934;DHT22;4012;48.896;9.192;2022-12-29T16:11:38;10.40;99.90
7934;DHT22;4012;48.896;9.192;2022-12-29T16:14:13;10.40;99.90
7934;DHT22;4012;48.896;9.192;2022-12-29T16:16:41;10.30;99.90
7934;DHT22;4012;48.896;9.192;2022-12-29T16:19:17;10.40;99.90
7934;DHT22;4012;48.896;9.192;2022-12-29T16:21:44;10.40;99.90
7934;DHT22;4012;48.896;9.192;2022-12-29T16:24:22;10.40;99.90
7934;DHT22;4012;48.896;9.192;2022-12-29T16:26:50;10.40;99.90
7934;DHT22;4012;48.896;9.192;2022-12-29T16:29:18;10.70;99.90
7934;DHT22;4012;48.896;9.192;2022-12-29T16:31:53;11.00;99.90
7934;DHT22;4012;48.896;9.192;2022-12-29T16:39:50;11.10;99.90
7934;DHT22;4012;48.896;9.192;2022-12-29T16:48:27;10.60;99.90
7934;DHT22;4012;48.896;9.192;2022-12-29T16:51:43;10.60;99.90
7934;DHT22;4012;48.896;9.192;2022-12-29T16:53:53;10.50;99.90
7934;DHT22;4012;48.896;9.192;2022-12-29T16:56:25;10.50;99.90
7934;DHT22;4012;48.896;9.192;2022-12-29T16:59:01;10.40;99.90
7934;DHT22;4012;48.896;9.192;2022-12-29T17:01:28;10.30;99.90
7934;DHT22;4012;48.896;9.192;2022-12-29T17:03:58;10.30;99.90
7934;DHT22;4012;48.896;9.192;2022-12-29T17:06:25;10.30;99.90
7934;DHT22;4012;48.896;9.192;2022-12-29T17:08:51;10.30;99.90
7934;DHT22;4012;48.896;9.192;2022-12-29T17:11:23;10.20;99.90
7934;DHT22;4012;48.896;9.192;2022-12-29T17:14:36;10.20;99.90
7934;DHT22;4012;48.896;9.192;2022-12-29T17:17:05;10.30;99.90
7934;DHT22;4012;48.896;9.192;2022-12-29T17:19:33;10.20;99.90
7934;DHT22;4012;48.896;9.192;2022-12-29T17:22:01;10.20;99.90
7934;DHT22;4012;48.896;9.192;2022-12-29T17:24:27;10.20;99.90
7934;DHT22;4012;48.896;9.192;2022-12-29T17:26:55;10.20;99.90
7934;DHT22;4012;48.896;9.192;2022-12-29T17:29:33;10.20;99.90
7934;DHT22;4012;48.896;9.192;2022-12-29T17:32:02;10.20;99.90
7934;DHT22;4012;48.896;9.192;2022-12-29T17:34:28;10.20;99.90
7934;DHT22;4012;48.896;9.192;2022-12-29T17:36:54;10.20;99.90
7934;DHT22;4012;48.896;9.192;2022-12-29T17:39:20;10.10;99.90
7934;DHT22;4012;48.896;9.192;2022-12-29T17:41:46;10.10;99.90
7934;DHT22;4012;48.896;9.192;2022-12-29T17:44:27;10.10;99.90
7934;DHT22;4012;48.896;9.192;2022-12-29T17:46:53;10.10;99.90
7934;DHT22;4012;48.896;9.192;2022-12-29T17:49:18;10.10;99.90
7934;DHT22;4012;48.896;9.192;2022-12-29T17:51:45;10.10;99.90
7934;DHT22;4012;48.896;9.192;2022-12-29T17:54:22;10.00;99.90
7934;DHT22;4012;48.896;9.192;2022-12-29T17:56:49;10.10;99.90
7934;DHT22;4012;48.896;9.192;2022-12-29T17:59:16;10.00;99.90
7934;DHT22;4012;48.896;9.192;2022-12-29T18:01:43;10.00;99.90
7934;DHT22;4012;48.896;9.192;2022-12-29T18:04:19;10.00;99.90
7934;DHT22;4012;48.896;9.192;2022-12-29T18:06:45;10.00;99.90
7934;DHT22;4012;48.896;9.192;2022-12-29T18:09:12;10.00;99.90
7934;DHT22;4012;48.896;9.192;2022-12-29T18:11:39;10.00;99.90
7934;DHT22;4012;48.896;9.192;2022-12-29T18:14:16;10.00;99.90
7934;DHT22;4012;48.896;9.192;2022-12-29T18:16:42;9.90;99.90
7934;DHT22;4012;48.896;9.192;2022-12-29T18:19:07;9.90;99.90
7934;DHT22;4012;48.896;9.192;2022-12-29T18:21:37;9.90;99.90
7934;DHT22;4012;48.896;9.192;2022-12-29T18:24:04;9.90;99.90
7934;DHT22;4012;48.896;9.192;2022-12-29T18:26:29;9.80;99.90
7934;DHT22;4012;48.896;9.192;2022-12-29T18:29:00;9.80;99.90
7934;DHT22;4012;48.896;9.192;2022-12-29T18:31:31;9.70;99.90
7934;DHT22;4012;48.896;9.192;2022-12-29T18:33:58;9.70;99.90
7934;DHT22;4012;48.896;9.192;2022-12-29T18:36:25;9.60;99.90
7934;DHT22;4012;48.896;9.192;2022-12-29T18:38:51;9.60;99.90
7934;DHT22;4012;48.896;9.192;2022-12-29T18:41:24;9.60;99.90
7934;DHT22;4012;48.896;9.192;2022-12-29T18:43:50;9.60;99.90
7934;DHT22;4012;48.896;9.192;2022-12-29T18:46:16;9.50;99.90
7934;DHT22;4012;48.896;9.192;2022-12-29T18:48:42;9.50;99.90